createdAt,value
2018-08-23T00:01:10.319Z,65.09
2018-08-23T00:03:38.482Z,64.86
2018-08-23T00:06:06.630Z,64.99
2018-08-23T00:08:34.756Z,65.10
2018-08-23T00:11:02.807Z,65.97
2018-08-23T00:13:35.065Z,65.17
2018-08-23T00:16:03.125Z,66.32
2018-08-23T00:18:31.190Z,66.07
2018-08-23T00:20:59.268Z,66.52
2018-08-23T00:23:27.398Z,66.15
2018-08-23T00:25:55.463Z,66.87
2018-08-23T00:28:23.506Z,66.07
2018-08-23T00:30:51.567Z,66.36
2018-08-23T00:33:19.660Z,66.70
2018-08-23T00:35:47.724Z,67.27
2018-08-23T00:38:15.965Z,67.37
2018-08-23T00:40:45.082Z,66.78
2018-08-23T00:43:14.010Z,67.43
2018-08-23T00:45:42.075Z,67.01
2018-08-23T00:48:10.155Z,67.05
2018-08-23T00:50:57.096Z,67.12
2018-08-23T00:53:25.423Z,66.68
2018-08-23T00:56:08.927Z,67.38
2018-08-23T00:58:36.999Z,66.89
2018-08-23T01:01:05.484Z,67.65
2018-08-23T01:03:35.375Z,67.94
2018-08-23T01:06:03.817Z,67.56
2018-08-23T01:08:34.780Z,67.49
2018-08-23T01:11:04.092Z,67.71
2018-08-23T01:13:32.184Z,67.33
2018-08-23T01:16:00.238Z,67.48
2018-08-23T01:18:28.319Z,67.59
2018-08-23T01:20:56.393Z,67.94
2018-08-23T01:23:24.479Z,67.56
2018-08-23T01:25:52.786Z,68.25
2018-08-23T01:28:20.878Z,68.33
2018-08-23T01:30:49.585Z,67.99
2018-08-23T01:33:18.805Z,68.69
2018-08-23T01:35:48.007Z,69.20
2018-08-23T01:38:16.606Z,70.50
2018-08-23T01:40:44.883Z,69.83
2018-08-23T01:43:12.992Z,69.56
2018-08-23T01:45:41.072Z,69.55
2018-08-23T01:48:09.967Z,69.27
2018-08-23T01:50:38.028Z,69.17
2018-08-23T01:53:06.139Z,69.19
2018-08-23T01:55:34.223Z,69.84
2018-08-23T01:58:02.359Z,69.82
2018-08-23T02:00:41.252Z,69.64
2018-08-23T02:03:09.327Z,69.86
2018-08-23T02:05:38.743Z,70.07
2018-08-23T02:08:07.467Z,69.89
2018-08-23T02:10:35.542Z,70.34
2018-08-23T02:13:03.632Z,71.04
2018-08-23T02:15:36.019Z,71.61
2018-08-23T02:18:04.948Z,72.00
2018-08-23T02:20:33.027Z,71.97
2018-08-23T02:23:04.483Z,71.69
2018-08-23T02:25:32.623Z,71.58
2018-08-23T02:28:01.971Z,71.93
2018-08-23T02:30:44.083Z,73.63
2018-08-23T02:33:12.974Z,74.34
2018-08-23T02:35:45.486Z,74.07
2018-08-23T02:38:13.545Z,74.19
2018-08-23T02:40:41.603Z,73.23
2018-08-23T02:43:09.712Z,73.35
2018-08-23T02:45:43.100Z,73.14
2018-08-23T02:48:11.145Z,73.55
2018-08-23T02:50:39.217Z,73.81
2018-08-23T02:53:24.067Z,74.36
2018-08-23T02:55:53.385Z,74.65
2018-08-23T02:58:22.703Z,74.71
2018-08-23T03:00:50.760Z,74.54
2018-08-23T03:03:18.835Z,74.64
2018-08-23T03:05:46.896Z,75.70
2018-08-23T03:08:15.024Z,75.36
2018-08-23T03:10:43.176Z,75.34
2018-08-23T03:13:11.385Z,75.06
2018-08-23T03:15:39.441Z,74.63
2018-08-23T03:18:07.501Z,74.92
2018-08-23T03:20:35.611Z,75.15
2018-08-23T03:23:03.696Z,73.88
2018-08-23T03:25:31.766Z,74.10
2018-08-23T03:27:59.816Z,74.17
2018-08-23T03:30:27.894Z,74.37
2018-08-23T03:32:55.984Z,74.15
2018-08-23T03:35:24.067Z,74.56
2018-08-23T03:37:52.140Z,74.91
2018-08-23T03:40:20.213Z,74.91
2018-08-23T03:42:48.276Z,75.23
2018-08-23T03:45:21.692Z,75.75
2018-08-23T03:47:51.255Z,75.21
2018-08-23T03:50:19.314Z,76.28
2018-08-23T03:52:49.593Z,75.38
2018-08-23T03:55:18.085Z,75.72
2018-08-23T03:57:52.398Z,76.00
2018-08-23T04:01:27.102Z,76.48
2018-08-23T04:03:55.229Z,76.36
2018-08-23T04:06:30.835Z,76.37
2018-08-23T04:08:58.931Z,77.01
2018-08-23T04:11:27.032Z,75.88
2018-08-23T04:13:55.203Z,75.80
2018-08-23T04:16:28.140Z,75.87
2018-08-23T04:18:56.767Z,76.48
2018-08-23T04:21:25.043Z,75.56
2018-08-23T04:23:53.167Z,76.42
2018-08-23T04:26:21.527Z,76.36
2018-08-23T04:28:49.607Z,77.12
2018-08-23T04:31:17.702Z,77.06
2018-08-23T04:33:45.746Z,76.45
2018-08-23T04:36:32.907Z,76.78
2018-08-23T04:39:05.021Z,76.47
2018-08-23T04:41:33.661Z,76.29
2018-08-23T04:44:11.195Z,75.71
2018-08-23T04:46:39.260Z,76.38
2018-08-23T04:49:07.872Z,76.43
2018-08-23T04:51:37.104Z,76.30
2018-08-23T04:54:05.299Z,76.06
2018-08-23T04:56:33.420Z,75.66
2018-08-23T04:59:01.616Z,75.20
2018-08-23T05:01:29.722Z,75.22
2018-08-23T05:03:57.824Z,74.49
2018-08-23T05:06:25.858Z,74.04
2018-08-23T05:08:53.926Z,73.56
2018-08-23T05:11:22.058Z,72.99
2018-08-23T05:13:50.108Z,72.56
2018-08-23T05:16:18.538Z,72.58
2018-08-23T05:18:46.607Z,71.50
2018-08-23T05:21:14.690Z,71.30
2018-08-23T05:23:42.783Z,71.04
2018-08-23T05:26:14.981Z,70.10
2018-08-23T05:28:56.926Z,70.36
2018-08-23T05:31:25.877Z,68.64
2018-08-23T05:33:53.912Z,68.88
2018-08-23T05:36:21.967Z,68.54
2018-08-23T05:38:50.011Z,67.46
2018-08-23T05:41:19.067Z,66.68
2018-08-23T05:43:52.623Z,66.26
2018-08-23T05:46:20.700Z,65.07
2018-08-23T05:48:48.799Z,64.91
2018-08-23T05:51:16.884Z,63.60
2018-08-23T05:53:46.777Z,63.93
2018-08-23T05:56:14.807Z,63.48
2018-08-23T05:58:42.871Z,62.31
2018-08-23T06:01:10.975Z,61.19
2018-08-23T06:03:39.203Z,61.74
2018-08-23T06:06:07.503Z,60.14
2018-08-23T06:08:35.555Z,59.78
2018-08-23T06:11:07.839Z,60.33
2018-08-23T06:13:35.943Z,59.20
2018-08-23T06:16:04.055Z,58.47
2018-08-23T06:18:32.171Z,58.28
2018-08-23T06:21:00.378Z,56.92
2018-08-23T06:23:43.114Z,56.23
2018-08-23T06:26:11.255Z,54.35
2018-08-23T06:28:39.300Z,54.56
2018-08-23T06:31:07.393Z,53.95
2018-08-23T06:33:40.897Z,53.32
2018-08-23T06:36:10.091Z,52.61
2018-08-23T06:38:39.071Z,52.47
2018-08-23T06:41:08.283Z,52.42
2018-08-23T06:43:36.332Z,51.84
2018-08-23T06:46:04.894Z,52.56
2018-08-23T06:48:33.137Z,53.45
2018-08-23T06:51:02.058Z,53.72
2018-08-23T06:53:39.217Z,54.42
2018-08-23T06:56:07.284Z,54.01
2018-08-23T06:58:35.691Z,55.17
2018-08-23T07:01:04.695Z,54.42
2018-08-23T07:03:33.801Z,54.49
2018-08-23T07:06:02.558Z,53.35
2018-08-23T07:08:30.596Z,53.73
2018-08-23T07:11:08.405Z,53.54
2018-08-23T07:13:36.623Z,53.02
2018-08-23T07:16:04.715Z,53.91
2018-08-23T07:18:33.066Z,53.46
2018-08-23T07:21:01.164Z,53.72
2018-08-23T07:23:30.731Z,53.44
2018-08-23T07:25:58.811Z,53.09
2018-08-23T07:28:26.881Z,54.02
2018-08-23T07:30:54.905Z,54.83
2018-08-23T07:33:22.988Z,54.81
2018-08-23T07:36:02.431Z,55.07
2018-08-23T07:38:30.481Z,56.31
2018-08-23T07:40:58.568Z,56.01
2018-08-23T07:43:26.653Z,56.98
2018-08-23T07:45:54.689Z,56.70
2018-08-23T07:48:22.970Z,57.37
2018-08-23T07:50:51.018Z,56.99
2018-08-23T07:53:19.748Z,57.62
2018-08-23T07:55:47.800Z,56.86
2018-08-23T07:58:15.888Z,57.01
2018-08-23T08:00:44.395Z,56.53
2018-08-23T08:03:13.658Z,56.50
2018-08-23T08:05:42.995Z,55.63
2018-08-23T08:08:11.982Z,54.82
2018-08-23T08:10:41.538Z,54.71
2018-08-23T08:13:09.581Z,54.07
2018-08-23T08:15:37.656Z,53.50
2018-08-23T08:18:07.118Z,52.95
2018-08-23T08:20:35.216Z,53.27
2018-08-23T08:23:03.295Z,52.21
2018-08-23T08:25:32.748Z,51.44
2018-08-23T08:28:00.834Z,51.70
2018-08-23T08:30:40.524Z,51.00
2018-08-23T08:33:10.213Z,51.34
2018-08-23T08:35:42.011Z,51.51
2018-08-23T08:38:10.521Z,51.04
2018-08-23T08:40:38.576Z,51.35
2018-08-23T08:43:06.647Z,50.66
2018-08-23T08:45:34.706Z,50.50
2018-08-23T08:48:13.430Z,51.24
2018-08-23T08:51:44.014Z,50.97
2018-08-23T08:54:12.093Z,50.44
2018-08-23T08:56:41.704Z,48.83
2018-08-23T08:59:09.796Z,49.11
2018-08-23T09:01:37.903Z,49.15
2018-08-23T09:04:09.036Z,48.05
2018-08-23T09:06:45.673Z,48.67
2018-08-23T09:09:23.668Z,47.28
2018-08-23T09:11:51.741Z,47.34
2018-08-23T09:14:20.794Z,46.31
2018-08-23T09:16:48.935Z,46.64
2018-08-23T09:19:17.124Z,45.39
2018-08-23T09:21:50.539Z,44.73
2018-08-23T09:24:26.641Z,44.78
2018-08-23T09:26:58.656Z,44.36
2018-08-23T09:29:34.931Z,44.62
2018-08-23T09:32:28.667Z,45.38
2018-08-23T09:34:58.059Z,44.63
2018-08-23T09:37:26.735Z,45.30
2018-08-23T09:39:54.851Z,44.56
2018-08-23T09:42:22.940Z,45.89
2018-08-23T09:45:23.796Z,45.82
2018-08-23T09:47:51.888Z,46.10
2018-08-23T09:50:19.964Z,46.58
2018-08-23T09:52:49.439Z,46.23
2018-08-23T09:55:18.667Z,46.44
2018-08-23T09:57:47.363Z,45.83
2018-08-23T10:01:18.158Z,45.35
2018-08-23T10:03:51.739Z,46.55
2018-08-23T10:06:21.751Z,45.79
2018-08-23T10:08:56.111Z,45.55
2018-08-23T10:11:29.575Z,45.46
2018-08-23T10:14:02.948Z,46.35
2018-08-23T10:16:36.343Z,45.96
2018-08-23T10:19:09.475Z,46.27
2018-08-23T10:21:42.991Z,45.83
2018-08-23T10:24:16.978Z,45.24
2018-08-23T10:26:45.661Z,45.39
2018-08-23T10:29:13.827Z,45.20
2018-08-23T10:31:41.905Z,45.88
2018-08-23T10:34:10.006Z,46.21
2018-08-23T10:36:38.217Z,45.70
2018-08-23T10:39:09.052Z,45.80
2018-08-23T10:41:37.182Z,46.98
2018-08-23T10:44:05.315Z,46.19
2018-08-23T10:47:07.109Z,45.81
2018-08-23T10:49:35.339Z,45.69
2018-08-23T10:52:03.415Z,45.77
2018-08-23T10:54:31.523Z,45.51
2018-08-23T10:56:59.700Z,45.13
2018-08-23T10:59:27.840Z,45.21
2018-08-23T11:01:55.927Z,45.06
2018-08-23T11:04:24.004Z,43.63
2018-08-23T11:06:58.139Z,44.21
2018-08-23T11:09:31.577Z,44.21
2018-08-23T11:11:59.961Z,43.87
2018-08-23T11:14:33.399Z,44.77
2018-08-23T11:17:06.930Z,43.68
2018-08-23T11:19:40.308Z,43.96
2018-08-23T11:22:08.430Z,43.64
2018-08-23T11:24:36.561Z,42.90
2018-08-23T11:27:04.668Z,44.22
2018-08-23T11:29:32.818Z,42.88
2018-08-23T11:32:00.992Z,43.68
2018-08-23T11:34:29.110Z,42.95
2018-08-23T11:36:57.237Z,42.56
2018-08-23T11:39:25.312Z,43.43
2018-08-23T11:41:53.440Z,42.78
2018-08-23T11:44:21.528Z,43.28
2018-08-23T11:46:49.616Z,42.53
2018-08-23T11:49:17.765Z,42.68
2018-08-23T11:51:45.960Z,41.86
2018-08-23T11:54:14.039Z,41.90
2018-08-23T11:56:42.204Z,42.30
2018-08-23T11:59:10.343Z,41.83
2018-08-23T12:01:38.403Z,41.60
2018-08-23T12:04:06.510Z,41.89
2018-08-23T12:06:34.704Z,41.25
2018-08-23T12:09:02.753Z,41.25
2018-08-23T12:11:30.895Z,41.22
2018-08-23T12:14:00.608Z,41.25
2018-08-23T12:16:28.745Z,41.24
2018-08-23T12:18:56.865Z,40.32
2018-08-23T12:21:24.932Z,41.18
2018-08-23T12:23:53.064Z,41.00
2018-08-23T12:26:21.185Z,40.67
2018-08-23T12:28:56.013Z,40.82
2018-08-23T12:31:24.273Z,39.19
2018-08-23T12:33:52.351Z,40.64
2018-08-23T12:36:25.681Z,39.98
2018-08-23T12:38:59.121Z,40.69
2018-08-23T12:41:32.621Z,40.71
2018-08-23T12:44:00.776Z,40.44
2018-08-23T12:46:29.001Z,40.39
2018-08-23T12:48:57.094Z,39.93
2018-08-23T12:51:25.180Z,40.54
2018-08-23T12:53:53.573Z,39.98
2018-08-23T12:56:21.816Z,40.15
2018-08-23T12:58:49.887Z,39.34
2018-08-23T13:01:18.005Z,39.95
2018-08-23T13:03:46.127Z,40.27
2018-08-23T13:06:14.128Z,40.48
2018-08-23T13:08:42.251Z,39.53
2018-08-23T13:11:10.359Z,39.33
2018-08-23T13:13:38.420Z,38.40
2018-08-23T13:16:06.498Z,39.15
2018-08-23T13:18:34.637Z,39.44
2018-08-23T13:21:02.745Z,39.64
2018-08-23T13:23:30.991Z,39.14
2018-08-23T13:25:59.512Z,38.35
2018-08-23T13:28:28.356Z,38.97
2018-08-23T13:30:56.554Z,38.68
2018-08-23T13:33:25.660Z,38.69
2018-08-23T13:35:53.760Z,37.74
2018-08-23T13:38:22.016Z,38.97
2018-08-23T13:40:54.018Z,39.07
2018-08-23T13:43:22.589Z,38.49
2018-08-23T13:45:50.636Z,38.93
2018-08-23T13:48:18.771Z,38.70
2018-08-23T13:50:46.808Z,38.94
2018-08-23T13:53:14.921Z,39.22
2018-08-23T13:55:43.023Z,38.40
2018-08-23T13:58:11.344Z,38.14
2018-08-23T14:00:40.072Z,39.00
2018-08-23T14:03:10.119Z,38.83
2018-08-23T14:05:39.409Z,38.78
2018-08-23T14:08:07.800Z,39.00
2018-08-23T14:10:36.007Z,38.94
2018-08-23T14:13:04.803Z,38.90
2018-08-23T14:15:38.418Z,38.12
2018-08-23T14:18:06.623Z,38.84
2018-08-23T14:20:34.916Z,38.06
2018-08-23T14:23:03.109Z,37.87
2018-08-23T14:25:31.576Z,38.01
2018-08-23T14:27:59.851Z,37.76
2018-08-23T14:30:28.150Z,39.48
2018-08-23T14:32:56.587Z,38.23
2018-08-23T14:35:24.667Z,38.43
2018-08-23T14:37:52.760Z,38.01
2018-08-23T14:40:20.963Z,38.59
2018-08-23T14:42:49.039Z,38.15
2018-08-23T14:45:22.598Z,38.23
2018-08-23T14:47:56.178Z,37.79
2018-08-23T14:50:24.337Z,38.13
2018-08-23T14:52:53.427Z,38.46
2018-08-23T14:55:26.959Z,39.36
2018-08-23T14:57:55.431Z,39.41
2018-08-23T15:00:23.482Z,38.09
2018-08-23T15:02:51.564Z,37.86
2018-08-23T15:05:19.646Z,38.00
2018-08-23T15:07:47.835Z,37.76
2018-08-23T15:10:15.895Z,38.53
2018-08-23T15:12:44.000Z,37.85
2018-08-23T15:15:12.107Z,38.95
2018-08-23T15:17:40.209Z,38.67
2018-08-23T15:20:08.384Z,39.10
2018-08-23T15:22:36.600Z,39.66
2018-08-23T15:25:04.947Z,39.03
2018-08-23T15:27:33.446Z,38.44
2018-08-23T15:30:02.653Z,38.70
2018-08-23T15:32:30.789Z,39.75
2018-08-23T15:34:58.924Z,39.56
2018-08-23T15:37:27.683Z,39.87
2018-08-23T15:39:55.764Z,39.99
2018-08-23T15:42:23.964Z,39.99
2018-08-23T15:44:52.072Z,40.45
2018-08-23T15:47:20.169Z,39.56
2018-08-23T15:49:48.252Z,39.68
2018-08-23T15:52:16.361Z,39.92
2018-08-23T15:54:44.468Z,40.00
2018-08-23T15:57:12.664Z,39.21
2018-08-23T15:59:40.778Z,39.05
2018-08-23T16:02:08.872Z,38.87
2018-08-23T16:04:36.938Z,38.36
2018-08-23T16:07:05.101Z,39.36
2018-08-23T16:09:33.212Z,39.87
2018-08-23T16:12:01.326Z,39.57
2018-08-23T16:14:29.537Z,38.83
2018-08-23T16:17:03.110Z,39.31
2018-08-23T16:19:36.475Z,38.65
2018-08-23T16:22:04.604Z,38.52
2018-08-23T16:24:32.682Z,38.41
2018-08-23T16:27:03.712Z,37.32
2018-08-23T16:29:31.946Z,38.02
2018-08-23T16:32:01.068Z,37.96
2018-08-23T16:34:29.418Z,39.35
2018-08-23T16:36:57.765Z,39.61
2018-08-23T16:39:25.888Z,38.87
2018-08-23T16:41:54.001Z,38.58
2018-08-23T16:44:22.093Z,39.08
2018-08-23T16:46:50.211Z,39.71
2018-08-23T16:49:18.283Z,39.04
2018-08-23T16:51:46.399Z,39.56
2018-08-23T16:54:14.507Z,40.67
2018-08-23T16:56:42.665Z,40.71
2018-08-23T16:59:10.781Z,40.73
2018-08-23T17:01:38.969Z,40.42
2018-08-23T17:04:07.154Z,40.66
2018-08-23T17:06:35.196Z,40.97
2018-08-23T17:09:03.318Z,40.89
2018-08-23T17:11:31.448Z,41.26
2018-08-23T17:13:59.555Z,41.10
2018-08-23T17:16:32.995Z,41.19
2018-08-23T17:19:01.361Z,41.05
2018-08-23T17:21:29.491Z,40.90
2018-08-23T17:23:57.684Z,40.61
2018-08-23T17:26:25.768Z,41.17
2018-08-23T17:28:53.869Z,41.13
2018-08-23T17:31:21.995Z,40.97
2018-08-23T17:33:50.079Z,40.85
2018-08-23T17:36:18.157Z,41.36
2018-08-23T17:38:46.328Z,41.47
2018-08-23T17:41:14.485Z,42.19
2018-08-23T17:43:42.655Z,42.01
2018-08-23T17:46:10.789Z,42.60
2018-08-23T17:48:38.869Z,42.94
2018-08-23T17:51:06.951Z,43.48
2018-08-23T17:53:35.108Z,43.69
2018-08-23T17:56:03.204Z,43.79
2018-08-23T17:58:31.308Z,44.11
2018-08-23T18:00:59.390Z,44.78
2018-08-23T18:03:27.549Z,45.01
2018-08-23T18:05:55.681Z,44.85
2018-08-23T18:08:23.899Z,45.27
2018-08-23T18:10:51.962Z,46.23
2018-08-23T18:13:20.032Z,46.03
2018-08-23T18:15:53.504Z,46.35
2018-08-23T18:18:21.705Z,46.97
2018-08-23T18:20:49.835Z,47.63
2018-08-23T18:23:17.944Z,47.62
2018-08-23T18:25:46.103Z,47.10
2018-08-23T18:28:14.286Z,47.70
2018-08-23T18:30:42.381Z,47.27
2018-08-23T18:33:11.599Z,48.24
2018-08-23T18:35:39.737Z,48.47
2018-08-23T18:38:07.813Z,48.98
2018-08-23T18:40:35.973Z,48.98
2018-08-23T18:43:04.072Z,48.67
2018-08-23T18:45:32.173Z,49.41
2018-08-23T18:48:00.299Z,49.47
2018-08-23T18:50:28.464Z,49.98
2018-08-23T18:52:56.568Z,49.38
2018-08-23T18:55:24.660Z,48.70
2018-08-23T18:57:52.752Z,49.40
2018-08-23T19:00:20.874Z,49.44
2018-08-23T19:02:48.965Z,49.50
2018-08-23T19:05:17.015Z,49.59
2018-08-23T19:07:45.077Z,49.55
2018-08-23T19:10:13.432Z,49.42
2018-08-23T19:12:41.495Z,50.48
2018-08-23T19:15:09.660Z,50.79
2018-08-23T19:17:39.733Z,50.92
2018-08-23T19:20:08.801Z,51.08
2018-08-23T19:22:37.194Z,51.47
2018-08-23T19:25:05.949Z,52.04
2018-08-23T19:27:34.092Z,51.48
2018-08-23T19:30:02.304Z,53.07
2018-08-23T19:32:30.813Z,53.40
2018-08-23T19:34:59.088Z,52.62
2018-08-23T19:37:27.195Z,53.49
2018-08-23T19:39:55.291Z,53.86
2018-08-23T19:42:23.345Z,54.06
2018-08-23T19:44:56.542Z,54.24
2018-08-23T19:47:29.920Z,54.27
2018-08-23T19:50:00.036Z,55.19
2018-08-23T19:52:29.229Z,55.02
2018-08-23T19:54:58.145Z,55.22
2018-08-23T19:57:26.400Z,55.18
2018-08-23T19:59:54.483Z,55.69
2018-08-23T20:02:22.612Z,54.77
2018-08-23T20:04:50.733Z,56.33
2018-08-23T20:07:18.805Z,56.32
2018-08-23T20:09:46.890Z,55.63
2018-08-23T20:12:14.987Z,56.88
2018-08-23T20:14:43.044Z,56.50
2018-08-23T20:17:11.123Z,56.04
2018-08-23T20:19:39.216Z,57.22
2018-08-23T20:22:07.923Z,56.94
2018-08-23T20:24:36.503Z,56.97
2018-08-23T20:27:04.661Z,57.27
2018-08-23T20:29:32.825Z,58.11
2018-08-23T20:32:00.927Z,56.66
2018-08-23T20:34:29.042Z,57.69
2018-08-23T20:36:57.137Z,58.31
2018-08-23T20:39:25.395Z,57.91
2018-08-23T20:41:53.283Z,57.07
2018-08-23T20:44:21.388Z,57.87
2018-08-23T20:46:49.491Z,58.41
2018-08-23T20:49:17.594Z,57.44
2018-08-23T20:51:45.700Z,58.06
2018-08-23T20:54:13.809Z,58.23
2018-08-23T20:56:41.892Z,58.22
2018-08-23T20:59:10.045Z,59.30
2018-08-23T21:01:38.141Z,58.74
2018-08-23T21:04:07.529Z,58.58
2018-08-23T21:06:35.609Z,58.96
2018-08-23T21:09:05.929Z,59.42
2018-08-23T21:11:34.023Z,58.58
2018-08-23T21:14:02.100Z,58.92
2018-08-23T21:16:30.210Z,59.17
2018-08-23T21:18:58.329Z,59.33
2018-08-23T21:21:26.403Z,59.42
2018-08-23T21:23:54.484Z,58.75
2018-08-23T21:26:22.605Z,58.61
2018-08-23T21:28:50.715Z,59.87
2018-08-23T21:31:18.842Z,59.15
2018-08-23T21:33:46.920Z,59.34
2018-08-23T21:36:15.047Z,60.15
2018-08-23T21:38:43.287Z,59.07
2018-08-23T21:41:12.960Z,58.99
2018-08-23T21:43:41.040Z,59.36
2018-08-23T21:46:09.169Z,59.26
2018-08-23T21:48:37.297Z,59.80
2018-08-23T21:51:05.499Z,60.51
2018-08-23T21:53:33.717Z,59.57
2018-08-23T21:56:01.869Z,60.42
2018-08-23T21:58:30.039Z,61.07
2018-08-23T22:01:03.346Z,60.11
2018-08-23T22:03:31.445Z,61.20
2018-08-23T22:05:59.587Z,60.46
2018-08-23T22:08:27.652Z,61.42
2018-08-23T22:10:55.796Z,61.48
2018-08-23T22:13:23.876Z,61.86
2018-08-23T22:15:51.943Z,61.82
2018-08-23T22:18:20.223Z,62.08
2018-08-23T22:20:48.298Z,62.02
2018-08-23T22:23:16.367Z,61.94
2018-08-23T22:25:44.432Z,61.90
2018-08-23T22:28:12.499Z,62.13
2018-08-23T22:30:41.736Z,61.69
2018-08-23T22:33:11.246Z,62.25
2018-08-23T22:35:39.810Z,62.58
2018-08-23T22:38:08.402Z,62.50
2018-08-23T22:40:37.035Z,63.19
2018-08-23T22:43:05.369Z,63.31
2018-08-23T22:45:33.539Z,63.07
2018-08-23T22:48:01.704Z,63.21
2018-08-23T22:50:36.206Z,63.62
2018-08-23T22:53:04.376Z,64.17
2018-08-23T22:55:32.494Z,63.80
2018-08-23T22:58:00.616Z,63.36
2018-08-23T23:00:33.993Z,63.85
2018-08-23T23:03:02.064Z,63.79
2018-08-23T23:05:30.152Z,64.29
2018-08-23T23:08:02.424Z,63.65
2018-08-23T23:10:30.493Z,64.95
2018-08-23T23:12:58.603Z,64.81
2018-08-23T23:15:26.944Z,64.39
2018-08-23T23:17:55.274Z,64.59
2018-08-23T23:20:23.351Z,64.92
2018-08-23T23:22:51.408Z,64.06
2018-08-23T23:25:19.463Z,64.99
2018-08-23T23:27:47.531Z,65.04
2018-08-23T23:30:15.587Z,64.28
2018-08-23T23:32:43.723Z,64.77
2018-08-23T23:35:11.860Z,63.86
2018-08-23T23:37:39.948Z,64.78
2018-08-23T23:40:08.059Z,63.85
2018-08-23T23:42:36.775Z,64.27
2018-08-23T23:45:05.576Z,64.71
2018-08-23T23:47:33.703Z,65.13
2018-08-23T23:50:01.846Z,64.90
2018-08-23T23:52:29.993Z,63.89
2018-08-23T23:57:25.244Z,64.50
2018-08-23T23:59:53.288Z,65.49
